sensor_id;sensor_type;location;lat;lon;timestamp;temperature;humidity
58519;DHT22;44310;48.106;12.008;2023-04-24T00:01:27;17.80;92.20
58519;DHT22;44310;48.106;12.008;2023-04-24T00:03:56;17.70;92.20
58519;DHT22;44310;48.106;12.008;2023-04-24T00:06:26;17.80;92.10
58519;DHT22;44310;48.106;12.008;2023-04-24T00:09:00;17.90;92.20
58519;DHT22;44310;48.106;12.008;2023-04-24T00:11:28;18.10;92.30
58519;DHT22;44310;48.106;12.008;2023-04-24T00:13:56;17.80;92.30
58519;DHT22;44310;48.106;12.008;2023-04-24T00:16:23;17.90;92.40
58519;DHT22;44310;48.106;12.008;2023-04-24T00:18:50;17.80;92.40
58519;DHT22;44310;48.106;12.008;2023-04-24T00:21:19;17.80;92.30
58519;DHT22;44310;48.106;12.008;2023-04-24T00:23:47;17.80;92.30
58519;DHT22;44310;48.106;12.008;2023-04-24T00:26:14;17.80;92.40
58519;DHT22;44310;48.106;12.008;2023-04-24T00:28:41;18.40;92.50
58519;DHT22;44310;48.106;12.008;2023-04-24T00:31:08;17.80;92.30
58519;DHT22;44310;48.106;12.008;2023-04-24T00:33:36;18.20;92.40
58519;DHT22;44310;48.106;12.008;2023-04-24T00:36:03;17.90;92.20
58519;DHT22;44310;48.106;12.008;2023-04-24T00:38:30;17.70;92.20
58519;DHT22;44310;48.106;12.008;2023-04-24T00:40:57;17.70;92.20
58519;DHT22;44310;48.106;12.008;2023-04-24T00:43:24;17.70;92.20
58519;DHT22;44310;48.106;12.008;2023-04-24T00:45:52;17.60;92.20
58519;DHT22;44310;48.106;12.008;2023-04-24T00:48:20;17.70;92.20
58519;DHT22;44310;48.106;12.008;2023-04-24T00:50:48;17.70;92.20
58519;DHT22;44310;48.106;12.008;2023-04-24T00:53:15;17.70;92.30
58519;DHT22;44310;48.106;12.008;2023-04-24T00:55:42;17.70;92.30
58519;DHT22;44310;48.106;12.008;2023-04-24T00:58:09;17.70;92.30
58519;DHT22;44310;48.106;12.008;2023-04-24T01:00:36;17.70;92.40
58519;DHT22;44310;48.106;12.008;2023-04-24T01:03:05;18.00;92.50
58519;DHT22;44310;48.106;12.008;2023-04-24T01:05:36;17.70;92.30
58519;DHT22;44310;48.106;12.008;2023-04-24T01:08:03;17.70;92.30
58519;DHT22;44310;48.106;12.008;2023-04-24T01:10:31;17.70;92.30
58519;DHT22;44310;48.106;12.008;2023-04-24T01:12:59;17.60;92.20
58519;DHT22;44310;48.106;12.008;2023-04-24T01:15:27;17.70;92.20
58519;DHT22;44310;48.106;12.008;2023-04-24T01:17:54;17.70;92.50
58519;DHT22;44310;48.106;12.008;2023-04-24T01:20:21;17.80;92.70
58519;DHT22;44310;48.106;12.008;2023-04-24T01:22:49;17.80;92.90
58519;DHT22;44310;48.106;12.008;2023-04-24T01:25:16;17.10;92.70
58519;DHT22;44310;48.106;12.008;2023-04-24T01:27:44;17.60;92.80
58519;DHT22;44310;48.106;12.008;2023-04-24T01:30:12;17.80;92.90
58519;DHT22;44310;48.106;12.008;2023-04-24T01:32:40;17.80;93.00
58519;DHT22;44310;48.106;12.008;2023-04-24T01:35:08;17.20;92.70
58519;DHT22;44310;48.106;12.008;2023-04-24T01:37:36;17.70;92.70
58519;DHT22;44310;48.106;12.008;2023-04-24T01:40:07;18.40;93.20
58519;DHT22;44310;48.106;12.008;2023-04-24T01:42:35;17.70;92.70
58519;DHT22;44310;48.106;12.008;2023-04-24T01:45:03;17.70;92.70
58519;DHT22;44310;48.106;12.008;2023-04-24T01:47:31;17.70;92.70
58519;DHT22;44310;48.106;12.008;2023-04-24T01:49:58;17.60;92.70
58519;DHT22;44310;48.106;12.008;2023-04-24T01:52:26;17.60;92.70
58519;DHT22;44310;48.106;12.008;2023-04-24T01:54:54;17.70;92.80
58519;DHT22;44310;48.106;12.008;2023-04-24T01:57:22;17.70;92.70
58519;DHT22;44310;48.106;12.008;2023-04-24T01:59:50;17.70;92.70
58519;DHT22;44310;48.106;12.008;2023-04-24T02:02:17;17.70;92.60
58519;DHT22;44310;48.106;12.008;2023-04-24T02:04:44;17.60;92.50
58519;DHT22;44310;48.106;12.008;2023-04-24T02:07:12;17.70;92.50
58519;DHT22;44310;48.106;12.008;2023-04-24T02:09:39;17.60;92.40
58519;DHT22;44310;48.106;12.008;2023-04-24T02:12:06;17.60;92.40
58519;DHT22;44310;48.106;12.008;2023-04-24T02:14:33;17.60;92.30
58519;DHT22;44310;48.106;12.008;2023-04-24T02:17:00;17.60;92.30
58519;DHT22;44310;48.106;12.008;2023-04-24T02:19:28;17.60;92.30
58519;DHT22;44310;48.106;12.008;2023-04-24T02:21:55;17.00;92.40
58519;DHT22;44310;48.106;12.008;2023-04-24T02:24:22;17.70;92.80
58519;DHT22;44310;48.106;12.008;2023-04-24T02:26:49;17.80;92.90
58519;DHT22;44310;48.106;12.008;2023-04-24T02:29:16;17.80;92.90
58519;DHT22;44310;48.106;12.008;2023-04-24T02:31:43;17.50;92.90
58519;DHT22;44310;48.106;12.008;2023-04-24T02:34:10;17.80;92.90
58519;DHT22;44310;48.106;12.008;2023-04-24T02:36:37;17.50;92.70
58519;DHT22;44310;48.106;12.008;2023-04-24T02:39:05;17.70;92.70
58519;DHT22;44310;48.106;12.008;2023-04-24T02:41:32;17.70;92.60
58519;DHT22;44310;48.106;12.008;2023-04-24T02:43:59;17.50;92.50
58519;DHT22;44310;48.106;12.008;2023-04-24T02:46:26;17.70;92.50
58519;DHT22;44310;48.106;12.008;2023-04-24T02:48:54;17.60;92.50
58519;DHT22;44310;48.106;12.008;2023-04-24T02:51:21;17.60;92.40
58519;DHT22;44310;48.106;12.008;2023-04-24T02:53:48;17.60;92.30
58519;DHT22;44310;48.106;12.008;2023-04-24T02:56:15;17.60;92.30
58519;DHT22;44310;48.106;12.008;2023-04-24T02:58:42;17.60;92.60
58519;DHT22;44310;48.106;12.008;2023-04-24T03:01:10;17.60;92.30
58519;DHT22;44310;48.106;12.008;2023-04-24T03:03:38;17.60;92.30
58519;DHT22;44310;48.106;12.008;2023-04-24T03:06:06;17.60;92.20
58519;DHT22;44310;48.106;12.008;2023-04-24T03:08:34;17.60;92.20
58519;DHT22;44310;48.106;12.008;2023-04-24T03:11:02;17.60;92.20
58519;DHT22;44310;48.106;12.008;2023-04-24T03:13:29;17.60;92.30
58519;DHT22;44310;48.106;12.008;2023-04-24T03:15:56;17.60;92.30
58519;DHT22;44310;48.106;12.008;2023-04-24T03:18:23;17.60;92.30
58519;DHT22;44310;48.106;12.008;2023-04-24T03:20:50;18.30;92.90
58519;DHT22;44310;48.106;12.008;2023-04-24T03:23:17;18.20;93.00
58519;DHT22;44310;48.106;12.008;2023-04-24T03:25:44;17.80;92.90
58519;DHT22;44310;48.106;12.008;2023-04-24T03:28:12;17.80;92.80
58519;DHT22;44310;48.106;12.008;2023-04-24T03:30:39;18.20;92.80
58519;DHT22;44310;48.106;12.008;2023-04-24T03:33:07;17.80;92.70
58519;DHT22;44310;48.106;12.008;2023-04-24T03:35:34;17.80;92.90
58519;DHT22;44310;48.106;12.008;2023-04-24T03:38:01;17.80;93.00
58519;DHT22;44310;48.106;12.008;2023-04-24T03:40:28;17.90;93.00
58519;DHT22;44310;48.106;12.008;2023-04-24T03:42:56;17.80;93.20
58519;DHT22;44310;48.106;12.008;2023-04-24T03:45:23;17.80;93.20
58519;DHT22;44310;48.106;12.008;2023-04-24T03:47:51;17.80;93.30
58519;DHT22;44310;48.106;12.008;2023-04-24T03:50:18;17.10;93.10
58519;DHT22;44310;48.106;12.008;2023-04-24T03:52:45;17.90;93.30
58519;DHT22;44310;48.106;12.008;2023-04-24T03:55:12;17.80;93.40
58519;DHT22;44310;48.106;12.008;2023-04-24T03:57:40;17.80;93.40
58519;DHT22;44310;48.106;12.008;2023-04-24T04:00:08;17.80;93.30
58519;DHT22;44310;48.106;12.008;2023-04-24T04:02:35;17.80;93.50
58519;DHT22;44310;48.106;12.008;2023-04-24T04:05:03;17.80;93.60
58519;DHT22;44310;48.106;12.008;2023-04-24T04:07:30;17.80;93.60
58519;DHT22;44310;48.106;12.008;2023-04-24T04:09:57;17.80;93.50
58519;DHT22;44310;48.106;12.008;2023-04-24T04:12:24;17.80;93.50
58519;DHT22;44310;48.106;12.008;2023-04-24T04:14:52;17.80;93.50
58519;DHT22;44310;48.106;12.008;2023-04-24T04:17:19;17.80;93.50
58519;DHT22;44310;48.106;12.008;2023-04-24T04:19:46;17.80;93.50
58519;DHT22;44310;48.106;12.008;2023-04-24T04:22:13;17.80;93.40
58519;DHT22;44310;48.106;12.008;2023-04-24T04:24:40;18.00;93.40
58519;DHT22;44310;48.106;12.008;2023-04-24T04:27:07;17.60;93.20
58519;DHT22;44310;48.106;12.008;2023-04-24T04:29:35;18.10;93.20
58519;DHT22;44310;48.106;12.008;2023-04-24T04:32:02;17.60;93.10
58519;DHT22;44310;48.106;12.008;2023-04-24T04:34:29;17.60;93.00
58519;DHT22;44310;48.106;12.008;2023-04-24T04:36:58;17.60;93.00
58519;DHT22;44310;48.106;12.008;2023-04-24T04:39:29;17.50;93.00
58519;DHT22;44310;48.106;12.008;2023-04-24T04:41:57;17.80;93.20
58519;DHT22;44310;48.106;12.008;2023-04-24T04:44:25;17.60;93.00
58519;DHT22;44310;48.106;12.008;2023-04-24T04:46:56;17.60;93.00
58519;DHT22;44310;48.106;12.008;2023-04-24T04:49:24;17.60;93.00
58519;DHT22;44310;48.106;12.008;2023-04-24T04:51:51;17.60;92.90
58519;DHT22;44310;48.106;12.008;2023-04-24T04:54:18;17.60;92.80
58519;DHT22;44310;48.106;12.008;2023-04-24T04:56:45;17.50;92.90
58519;DHT22;44310;48.106;12.008;2023-04-24T04:59:12;17.50;92.80
58519;DHT22;44310;48.106;12.008;2023-04-24T05:01:39;17.50;92.80
58519;DHT22;44310;48.106;12.008;2023-04-24T05:04:07;17.60;93.20
58519;DHT22;44310;48.106;12.008;2023-04-24T05:06:34;17.60;93.20
58519;DHT22;44310;48.106;12.008;2023-04-24T05:09:02;17.70;93.30
58519;DHT22;44310;48.106;12.008;2023-04-24T05:11:30;17.70;93.30
58519;DHT22;44310;48.106;12.008;2023-04-24T05:13:57;17.70;93.40
58519;DHT22;44310;48.106;12.008;2023-04-24T05:16:24;17.80;93.30
58519;DHT22;44310;48.106;12.008;2023-04-24T05:18:51;17.80;93.30
58519;DHT22;44310;48.106;12.008;2023-04-24T05:21:18;17.80;93.20
58519;DHT22;44310;48.106;12.008;2023-04-24T05:23:46;17.80;93.20
58519;DHT22;44310;48.106;12.008;2023-04-24T05:26:13;18.20;93.10
58519;DHT22;44310;48.106;12.008;2023-04-24T05:28:41;17.70;92.80
58519;DHT22;44310;48.106;12.008;2023-04-24T05:31:08;17.60;92.60
58519;DHT22;44310;48.106;12.008;2023-04-24T05:33:35;17.50;92.50
58519;DHT22;44310;48.106;12.008;2023-04-24T05:36:02;17.60;92.50
58519;DHT22;44310;48.106;12.008;2023-04-24T05:38:29;17.60;92.50
58519;DHT22;44310;48.106;12.008;2023-04-24T05:40:57;17.70;92.40
58519;DHT22;44310;48.106;12.008;2023-04-24T05:43:24;17.60;92.60
58519;DHT22;44310;48.106;12.008;2023-04-24T05:45:52;18.30;92.90
58519;DHT22;44310;48.106;12.008;2023-04-24T05:48:20;17.70;92.80
58519;DHT22;44310;48.106;12.008;2023-04-24T05:50:48;17.70;92.80
58519;DHT22;44310;48.106;12.008;2023-04-24T05:53:15;17.70;92.70
58519;DHT22;44310;48.106;12.008;2023-04-24T05:55:43;17.70;92.70
58519;DHT22;44310;48.106;12.008;2023-04-24T05:58:11;17.50;92.70
58519;DHT22;44310;48.106;12.008;2023-04-24T06:00:38;17.70;92.90
58519;DHT22;44310;48.106;12.008;2023-04-24T06:03:08;18.00;92.70
58519;DHT22;44310;48.106;12.008;2023-04-24T06:05:35;17.70;92.50
58519;DHT22;44310;48.106;12.008;2023-04-24T06:08:02;17.70;92.60
58519;DHT22;44310;48.106;12.008;2023-04-24T06:10:30;17.70;92.70
58519;DHT22;44310;48.106;12.008;2023-04-24T06:12:57;17.70;92.70
58519;DHT22;44310;48.106;12.008;2023-04-24T06:15:29;17.70;92.70
58519;DHT22;44310;48.106;12.008;2023-04-24T06:17:57;17.70;92.70
58519;DHT22;44310;48.106;12.008;2023-04-24T06:20:24;17.80;92.80
58519;DHT22;44310;48.106;12.008;2023-04-24T06:22:51;17.80;92.80
58519;DHT22;44310;48.106;12.008;2023-04-24T06:25:19;17.80;92.70
58519;DHT22;44310;48.106;12.008;2023-04-24T06:27:46;17.80;92.60
58519;DHT22;44310;48.106;12.008;2023-04-24T06:30:13;18.40;92.60
58519;DHT22;44310;48.106;12.008;2023-04-24T06:32:40;17.70;92.20
58519;DHT22;44310;48.106;12.008;2023-04-24T06:35:07;17.50;90.50
58519;DHT22;44310;48.106;12.008;2023-04-24T06:37:36;17.10;79.80
58519;DHT22;44310;48.106;12.008;2023-04-24T06:40:04;16.60;84.70
58519;DHT22;44310;48.106;12.008;2023-04-24T06:42:35;16.60;88.40
58519;DHT22;44310;48.106;12.008;2023-04-24T06:45:02;16.80;90.20
58519;DHT22;44310;48.106;12.008;2023-04-24T06:47:30;17.00;90.40
58519;DHT22;44310;48.106;12.008;2023-04-24T06:49:57;17.10;90.50
58519;DHT22;44310;48.106;12.008;2023-04-24T06:52:26;17.20;90.70
58519;DHT22;44310;48.106;12.008;2023-04-24T06:55:00;17.30;90.50
58519;DHT22;44310;48.106;12.008;2023-04-24T06:57:28;17.40;90.60
58519;DHT22;44310;48.106;12.008;2023-04-24T06:59:55;17.40;90.70
58519;DHT22;44310;48.106;12.008;2023-04-24T07:02:23;17.30;90.80
58519;DHT22;44310;48.106;12.008;2023-04-24T07:04:50;17.60;90.90
58519;DHT22;44310;48.106;12.008;2023-04-24T07:07:17;17.60;90.90
58519;DHT22;44310;48.106;12.008;2023-04-24T07:09:44;17.60;90.90
58519;DHT22;44310;48.106;12.008;2023-04-24T07:12:12;17.60;91.00
58519;DHT22;44310;48.106;12.008;2023-04-24T07:14:40;17.60;91.00
58519;DHT22;44310;48.106;12.008;2023-04-24T07:17:07;17.80;91.00
58519;DHT22;44310;48.106;12.008;2023-04-24T07:19:34;17.70;91.00
58519;DHT22;44310;48.106;12.008;2023-04-24T07:22:04;17.70;90.90
58519;DHT22;44310;48.106;12.008;2023-04-24T07:24:32;17.70;90.90
58519;DHT22;44310;48.106;12.008;2023-04-24T07:26:59;17.70;91.00
58519;DHT22;44310;48.106;12.008;2023-04-24T07:29:28;17.70;91.00
58519;DHT22;44310;48.106;12.008;2023-04-24T07:31:55;17.60;90.90
58519;DHT22;44310;48.106;12.008;2023-04-24T07:34:23;17.70;90.90
58519;DHT22;44310;48.106;12.008;2023-04-24T07:36:50;17.70;90.90
58519;DHT22;44310;48.106;12.008;2023-04-24T07:39:18;17.70;90.90
58519;DHT22;44310;48.106;12.008;2023-04-24T07:41:45;17.70;90.90
58519;DHT22;44310;48.106;12.008;2023-04-24T07:44:12;17.70;90.90
58519;DHT22;44310;48.106;12.008;2023-04-24T07:46:40;17.80;90.90
58519;DHT22;44310;48.106;12.008;2023-04-24T07:49:07;17.70;90.80
58519;DHT22;44310;48.106;12.008;2023-04-24T07:51:40;17.80;90.80
58519;DHT22;44310;48.106;12.008;2023-04-24T07:54:08;18.60;91.10
58519;DHT22;44310;48.106;12.008;2023-04-24T07:56:35;17.80;90.90
58519;DHT22;44310;48.106;12.008;2023-04-24T07:59:06;17.80;90.90
58519;DHT22;44310;48.106;12.008;2023-04-24T08:01:33;18.40;91.00
58519;DHT22;44310;48.106;12.008;2023-04-24T08:04:00;17.80;90.90
58519;DHT22;44310;48.106;12.008;2023-04-24T08:06:28;17.80;90.90
58519;DHT22;44310;48.106;12.008;2023-04-24T08:08:58;17.80;91.20
58519;DHT22;44310;48.106;12.008;2023-04-24T08:11:25;17.80;90.90
58519;DHT22;44310;48.106;12.008;2023-04-24T08:13:53;17.80;91.00
58519;DHT22;44310;48.106;12.008;2023-04-24T08:16:21;17.70;90.90
58519;DHT22;44310;48.106;12.008;2023-04-24T08:18:51;17.60;90.80
58519;DHT22;44310;48.106;12.008;2023-04-24T08:21:18;17.90;90.80
58519;DHT22;44310;48.106;12.008;2023-04-24T08:23:46;17.80;90.70
58519;DHT22;44310;48.106;12.008;2023-04-24T08:26:13;17.90;90.70
58519;DHT22;44310;48.106;12.008;2023-04-24T08:28:41;17.80;90.70
58519;DHT22;44310;48.106;12.008;2023-04-24T08:31:08;17.80;90.70
58519;DHT22;44310;48.106;12.008;2023-04-24T08:33:35;17.90;90.70
58519;DHT22;44310;48.106;12.008;2023-04-24T08:36:03;17.80;90.70
58519;DHT22;44310;48.106;12.008;2023-04-24T08:38:30;17.80;90.70
58519;DHT22;44310;48.106;12.008;2023-04-24T08:40:59;17.90;90.70
58519;DHT22;44310;48.106;12.008;2023-04-24T08:43:27;17.80;90.70
58519;DHT22;44310;48.106;12.008;2023-04-24T08:45:56;17.80;90.80
58519;DHT22;44310;48.106;12.008;2023-04-24T08:48:24;17.80;90.80
58519;DHT22;44310;48.106;12.008;2023-04-24T08:50:59;17.80;90.90
58519;DHT22;44310;48.106;12.008;2023-04-24T08:53:26;17.80;90.60
58519;DHT22;44310;48.106;12.008;2023-04-24T08:55:55;16.80;88.00
58519;DHT22;44310;48.106;12.008;2023-04-24T08:58:25;17.10;82.90
58519;DHT22;44310;48.106;12.008;2023-04-24T09:00:54;16.90;85.50
58519;DHT22;44310;48.106;12.008;2023-04-24T09:03:22;16.80;85.20
58519;DHT22;44310;48.106;12.008;2023-04-24T09:05:50;16.90;86.70
58519;DHT22;44310;48.106;12.008;2023-04-24T09:08:18;16.90;86.10
58519;DHT22;44310;48.106;12.008;2023-04-24T09:10:46;17.00;86.20
58519;DHT22;44310;48.106;12.008;2023-04-24T09:13:19;17.30;86.20
58519;DHT22;44310;48.106;12.008;2023-04-24T09:15:46;17.30;87.40
58519;DHT22;44310;48.106;12.008;2023-04-24T09:18:14;17.30;86.70
58519;DHT22;44310;48.106;12.008;2023-04-24T09:21:00;17.00;86.30
58519;DHT22;44310;48.106;12.008;2023-04-24T09:23:29;17.40;84.60
58519;DHT22;44310;48.106;12.008;2023-04-24T09:25:58;17.00;79.30
58519;DHT22;44310;48.106;12.008;2023-04-24T09:28:31;16.70;83.20
58519;DHT22;44310;48.106;12.008;2023-04-24T09:31:19;16.40;84.80
58519;DHT22;44310;48.106;12.008;2023-04-24T09:33:54;16.90;86.70
58519;DHT22;44310;48.106;12.008;2023-04-24T09:36:34;16.70;87.90
58519;DHT22;44310;48.106;12.008;2023-04-24T09:39:06;16.80;88.80
58519;DHT22;44310;48.106;12.008;2023-04-24T09:41:35;16.90;89.00
58519;DHT22;44310;48.106;12.008;2023-04-24T09:44:15;17.00;88.70
58519;DHT22;44310;48.106;12.008;2023-04-24T09:46:45;16.70;84.50
58519;DHT22;44310;48.106;12.008;2023-04-24T09:49:19;16.60;85.00
58519;DHT22;44310;48.106;12.008;2023-04-24T09:51:47;16.50;85.90
58519;DHT22;44310;48.106;12.008;2023-04-24T09:54:19;16.60;86.70
58519;DHT22;44310;48.106;12.008;2023-04-24T09:56:50;16.60;88.30
58519;DHT22;44310;48.106;12.008;2023-04-24T09:59:19;16.60;89.90
58519;DHT22;44310;48.106;12.008;2023-04-24T10:01:47;16.90;89.80
58519;DHT22;44310;48.106;12.008;2023-04-24T10:04:16;16.60;90.00
58519;DHT22;44310;48.106;12.008;2023-04-24T10:06:45;17.00;90.20
58519;DHT22;44310;48.106;12.008;2023-04-24T10:09:13;17.00;90.30
58519;DHT22;44310;48.106;12.008;2023-04-24T10:11:42;17.00;90.20
58519;DHT22;44310;48.106;12.008;2023-04-24T10:14:15;17.00;90.30
58519;DHT22;44310;48.106;12.008;2023-04-24T10:16:43;17.10;90.30
58519;DHT22;44310;48.106;12.008;2023-04-24T10:19:11;17.10;90.20
58519;DHT22;44310;48.106;12.008;2023-04-24T10:21:41;17.10;90.20
58519;DHT22;44310;48.106;12.008;2023-04-24T10:24:18;17.10;90.30
58519;DHT22;44310;48.106;12.008;2023-04-24T10:26:45;17.10;90.40
58519;DHT22;44310;48.106;12.008;2023-04-24T10:29:17;17.10;90.20
58519;DHT22;44310;48.106;12.008;2023-04-24T10:31:44;17.10;90.10
58519;DHT22;44310;48.106;12.008;2023-04-24T10:34:16;17.10;90.10
58519;DHT22;44310;48.106;12.008;2023-04-24T10:36:51;17.10;90.20
58519;DHT22;44310;48.106;12.008;2023-04-24T10:39:22;17.40;90.20
58519;DHT22;44310;48.106;12.008;2023-04-24T10:41:54;17.10;90.00
58519;DHT22;44310;48.106;12.008;2023-04-24T10:44:24;17.10;89.80
58519;DHT22;44310;48.106;12.008;2023-04-24T10:46:55;17.40;89.70
58519;DHT22;44310;48.106;12.008;2023-04-24T10:49:30;17.00;89.30
58519;DHT22;44310;48.106;12.008;2023-04-24T10:52:02;17.00;89.10
58519;DHT22;44310;48.106;12.008;2023-04-24T10:54:41;17.00;89.60
58519;DHT22;44310;48.106;12.008;2023-04-24T10:59:50;17.10;88.60
58519;DHT22;44310;48.106;12.008;2023-04-24T11:02:18;17.00;88.30
58519;DHT22;44310;48.106;12.008;2023-04-24T11:04:45;16.90;88.30
58519;DHT22;44310;48.106;12.008;2023-04-24T11:07:13;17.10;88.40
58519;DHT22;44310;48.106;12.008;2023-04-24T11:09:42;17.10;88.30
58519;DHT22;44310;48.106;12.008;2023-04-24T11:12:11;17.00;88.00
58519;DHT22;44310;48.106;12.008;2023-04-24T11:17:38;17.10;87.80
58519;DHT22;44310;48.106;12.008;2023-04-24T11:20:09;17.10;87.80
58519;DHT22;44310;48.106;12.008;2023-04-24T11:22:54;17.10;87.70
58519;DHT22;44310;48.106;12.008;2023-04-24T11:25:22;17.10;87.60
58519;DHT22;44310;48.106;12.008;2023-04-24T11:27:50;17.10;87.60
58519;DHT22;44310;48.106;12.008;2023-04-24T11:30:19;17.10;87.40
58519;DHT22;44310;48.106;12.008;2023-04-24T11:32:52;17.10;88.00
58519;DHT22;44310;48.106;12.008;2023-04-24T11:35:21;17.10;87.20
58519;DHT22;44310;48.106;12.008;2023-04-24T11:37:53;17.10;87.10
58519;DHT22;44310;48.106;12.008;2023-04-24T11:40:40;17.10;87.20
58519;DHT22;44310;48.106;12.008;2023-04-24T11:43:09;17.10;87.40
58519;DHT22;44310;48.106;12.008;2023-04-24T11:45:37;16.40;87.00
58519;DHT22;44310;48.106;12.008;2023-04-24T11:48:04;17.10;87.40
58519;DHT22;44310;48.106;12.008;2023-04-24T11:50:31;17.20;87.50
58519;DHT22;44310;48.106;12.008;2023-04-24T11:52:58;17.10;87.50
58519;DHT22;44310;48.106;12.008;2023-04-24T11:55:28;17.10;87.40
58519;DHT22;44310;48.106;12.008;2023-04-24T11:57:57;17.20;87.40
58519;DHT22;44310;48.106;12.008;2023-04-24T12:00:28;17.10;87.90
58519;DHT22;44310;48.106;12.008;2023-04-24T12:03:05;17.10;87.20
58519;DHT22;44310;48.106;12.008;2023-04-24T12:05:33;16.90;86.90
58519;DHT22;44310;48.106;12.008;2023-04-24T12:08:02;17.10;86.90
58519;DHT22;44310;48.106;12.008;2023-04-24T12:10:30;17.10;86.60
58519;DHT22;44310;48.106;12.008;2023-04-24T12:12:58;17.10;86.70
58519;DHT22;44310;48.106;12.008;2023-04-24T12:15:27;16.90;86.50
58519;DHT22;44310;48.106;12.008;2023-04-24T12:17:55;17.10;86.50
58519;DHT22;44310;48.106;12.008;2023-04-24T12:20:35;17.10;86.50
58519;DHT22;44310;48.106;12.008;2023-04-24T12:23:02;17.10;86.30
58519;DHT22;44310;48.106;12.008;2023-04-24T12:25:33;17.10;86.30
58519;DHT22;44310;48.106;12.008;2023-04-24T12:30:45;17.10;86.30
58519;DHT22;44310;48.106;12.008;2023-04-24T12:33:19;17.60;86.40
58519;DHT22;44310;48.106;12.008;2023-04-24T12:35:48;17.10;86.10
58519;DHT22;44310;48.106;12.008;2023-04-24T12:38:23;17.10;86.20
58519;DHT22;44310;48.106;12.008;2023-04-24T12:41:07;17.10;86.40
58519;DHT22;44310;48.106;12.008;2023-04-24T12:43:34;17.20;86.70
58519;DHT22;44310;48.106;12.008;2023-04-24T12:46:02;17.10;86.50
58519;DHT22;44310;48.106;12.008;2023-04-24T12:48:30;17.10;86.20
58519;DHT22;44310;48.106;12.008;2023-04-24T12:50:58;17.10;86.20
58519;DHT22;44310;48.106;12.008;2023-04-24T12:53:29;17.10;86.10
58519;DHT22;44310;48.106;12.008;2023-04-24T12:55:59;16.90;85.80
58519;DHT22;44310;48.106;12.008;2023-04-24T12:58:26;17.10;86.00
58519;DHT22;44310;48.106;12.008;2023-04-24T13:00:53;17.10;86.20
58519;DHT22;44310;48.106;12.008;2023-04-24T13:03:21;17.10;86.30
58519;DHT22;44310;48.106;12.008;2023-04-24T13:05:49;17.10;86.40
58519;DHT22;44310;48.106;12.008;2023-04-24T13:08:17;17.10;86.50
58519;DHT22;44310;48.106;12.008;2023-04-24T13:10:44;17.10;86.10
58519;DHT22;44310;48.106;12.008;2023-04-24T13:13:11;17.10;85.80
58519;DHT22;44310;48.106;12.008;2023-04-24T13:15:38;17.10;85.20
58519;DHT22;44310;48.106;12.008;2023-04-24T13:18:05;16.70;85.10
58519;DHT22;44310;48.106;12.008;2023-04-24T13:20:32;17.00;83.00
58519;DHT22;44310;48.106;12.008;2023-04-24T13:22:59;16.80;82.00
58519;DHT22;44310;48.106;12.008;2023-04-24T13:25:26;17.50;83.90
58519;DHT22;44310;48.106;12.008;2023-04-24T13:27:54;16.80;83.70
58519;DHT22;44310;48.106;12.008;2023-04-24T13:30:21;17.00;84.40
58519;DHT22;44310;48.106;12.008;2023-04-24T13:32:48;17.10;84.90
58519;DHT22;44310;48.106;12.008;2023-04-24T13:35:16;17.20;85.00
58519;DHT22;44310;48.106;12.008;2023-04-24T13:37:43;16.60;84.80
58519;DHT22;44310;48.106;12.008;2023-04-24T13:40:10;17.30;85.70
58519;DHT22;44310;48.106;12.008;2023-04-24T13:42:37;17.40;86.00
58519;DHT22;44310;48.106;12.008;2023-04-24T13:45:05;17.50;86.50
58519;DHT22;44310;48.106;12.008;2023-04-24T13:47:50;17.50;86.70
58519;DHT22;44310;48.106;12.008;2023-04-24T13:50:19;18.30;87.30
58519;DHT22;44310;48.106;12.008;2023-04-24T13:52:46;17.60;87.10
58519;DHT22;44310;48.106;12.008;2023-04-24T13:55:13;17.60;87.10
58519;DHT22;44310;48.106;12.008;2023-04-24T13:57:40;17.60;87.10
58519;DHT22;44310;48.106;12.008;2023-04-24T14:00:08;17.70;87.20
58519;DHT22;44310;48.106;12.008;2023-04-24T14:02:37;17.60;87.30
58519;DHT22;44310;48.106;12.008;2023-04-24T14:05:05;17.60;87.40
58519;DHT22;44310;48.106;12.008;2023-04-24T14:07:33;17.70;87.70
58519;DHT22;44310;48.106;12.008;2023-04-24T14:10:00;17.70;87.70
58519;DHT22;44310;48.106;12.008;2023-04-24T14:12:27;17.70;87.80
58519;DHT22;44310;48.106;12.008;2023-04-24T14:14:54;17.60;87.80
58519;DHT22;44310;48.106;12.008;2023-04-24T14:17:21;17.70;87.80
58519;DHT22;44310;48.106;12.008;2023-04-24T14:19:49;17.70;88.40
58519;DHT22;44310;48.106;12.008;2023-04-24T14:22:16;17.70;87.90
58519;DHT22;44310;48.106;12.008;2023-04-24T14:24:44;17.70;88.10
58519;DHT22;44310;48.106;12.008;2023-04-24T14:27:11;17.80;88.30
58519;DHT22;44310;48.106;12.008;2023-04-24T14:29:38;17.60;88.20
58519;DHT22;44310;48.106;12.008;2023-04-24T14:32:05;17.70;88.20
58519;DHT22;44310;48.106;12.008;2023-04-24T14:34:33;18.00;88.40
58519;DHT22;44310;48.106;12.008;2023-04-24T14:37:00;17.90;88.20
58519;DHT22;44310;48.106;12.008;2023-04-24T14:39:28;17.70;88.10
58519;DHT22;44310;48.106;12.008;2023-04-24T14:41:55;17.70;88.00
58519;DHT22;44310;48.106;12.008;2023-04-24T14:44:22;17.70;87.90
58519;DHT22;44310;48.106;12.008;2023-04-24T14:46:49;17.80;87.90
58519;DHT22;44310;48.106;12.008;2023-04-24T14:49:16;17.70;87.80
58519;DHT22;44310;48.106;12.008;2023-04-24T14:51:43;17.70;87.70
58519;DHT22;44310;48.106;12.008;2023-04-24T14:54:11;17.70;87.60
58519;DHT22;44310;48.106;12.008;2023-04-24T14:56:38;17.80;87.60
58519;DHT22;44310;48.106;12.008;2023-04-24T14:59:07;17.80;87.50
58519;DHT22;44310;48.106;12.008;2023-04-24T15:01:35;17.70;87.40
58519;DHT22;44310;48.106;12.008;2023-04-24T15:04:02;17.80;87.30
58519;DHT22;44310;48.106;12.008;2023-04-24T15:06:30;17.70;87.10
58519;DHT22;44310;48.106;12.008;2023-04-24T15:08:58;17.70;87.10
58519;DHT22;44310;48.106;12.008;2023-04-24T15:11:25;17.80;87.20
58519;DHT22;44310;48.106;12.008;2023-04-24T15:13:52;17.50;87.00
58519;DHT22;44310;48.106;12.008;2023-04-24T15:16:20;17.80;87.30
58519;DHT22;44310;48.106;12.008;2023-04-24T15:18:47;17.80;87.50
58519;DHT22;44310;48.106;12.008;2023-04-24T15:21:14;17.80;88.20
58519;DHT22;44310;48.106;12.008;2023-04-24T15:23:41;17.70;87.50
58519;DHT22;44310;48.106;12.008;2023-04-24T15:26:09;17.80;87.50
58519;DHT22;44310;48.106;12.008;2023-04-24T15:28:36;17.80;87.30
58519;DHT22;44310;48.106;12.008;2023-04-24T15:31:03;17.80;87.10